Time;durP1;ratioP1;P1;durP2;ratioP2;P2;SDS_P1;SDS_P2;PMS_P1;PMS_P2;Temp;Humidity;BMP_temperature;BMP_pressure;BME280_temperature;BME280_humidity;BME280_pressure;Samples;Min_cycle;Max_cycle;Signal;HPM_P1;HPM_P2
2024/04/01 00:00:49;;;;;;;94.78;16.48;;;15.40;88.20;;;;;;4987517;28;112883;-50
2024/04/01 00:03:15;;;;;;;93.03;16.70;;;15.40;88.30;;;;;;4987625;28;112707;-49
2024/04/01 00:05:51;;;;;;;112.00;17.83;;;15.30;88.50;;;;;;4986114;28;114369;-50
2024/04/01 00:08:20;;;;;;;108.45;17.58;;;15.30;88.50;;;;;;4986721;28;112994;-50
2024/04/01 00:10:45;;;;;;;97.32;16.85;;;15.30;88.70;;;;;;4987299;28;112874;-50
2024/04/01 00:13:11;;;;;;;110.40;18.08;;;15.30;88.70;;;;;;4987501;28;112844;-53
2024/04/01 00:15:39;;;;;;;106.50;17.75;;;15.20;88.80;;;;;;4985862;28;113782;-50
2024/04/01 00:18:05;;;;;;;97.10;17.73;;;15.20;89.00;;;;;;4984313;28;113482;-50
2024/04/01 00:20:30;;;;;;;94.30;16.45;;;15.20;88.90;;;;;;4986927;28;112591;-51
2024/04/01 00:22:56;;;;;;;117.90;18.77;;;15.30;88.80;;;;;;4983564;28;112598;-49
2024/04/01 00:25:21;;;;;;;97.90;16.98;;;15.30;88.90;;;;;;4975886;28;113936;-49
2024/04/01 00:27:47;;;;;;;97.97;17.50;;;15.20;88.90;;;;;;4977729;28;113809;-50
2024/04/01 00:30:13;;;;;;;100.53;18.27;;;15.30;88.90;;;;;;4981570;28;112746;-50
2024/04/01 00:32:39;;;;;;;105.30;17.50;;;15.30;88.80;;;;;;4986845;28;113050;-54
2024/04/01 00:35:04;;;;;;;98.07;17.90;;;15.30;88.70;;;;;;4985820;28;114617;-51
2024/04/01 00:37:30;;;;;;;102.13;18.17;;;15.30;88.80;;;;;;4967769;28;113557;-53
2024/04/01 00:39:56;;;;;;;102.90;17.08;;;15.30;88.70;;;;;;4966998;28;112815;-52
2024/04/01 00:42:22;;;;;;;109.60;19.83;;;15.40;88.60;;;;;;4983711;28;112631;-52
2024/04/01 00:44:47;;;;;;;104.38;19.30;;;15.40;88.50;;;;;;4985528;28;114439;-55
2024/04/01 00:47:13;;;;;;;105.70;18.15;;;15.40;88.50;;;;;;4985669;28;112689;-50
2024/04/01 00:49:39;;;;;;;103.55;18.35;;;15.40;88.60;;;;;;4986968;28;112663;-50
2024/04/01 00:52:05;;;;;;;104.50;17.33;;;15.40;88.60;;;;;;4986907;28;112733;-49
2024/04/01 00:54:31;;;;;;;109.30;17.70;;;15.40;88.60;;;;;;4967949;28;113319;-49
2024/04/01 00:56:57;;;;;;;113.70;19.30;;;15.30;88.60;;;;;;4966094;28;112941;-50
2024/04/01 00:59:23;;;;;;;106.88;17.90;;;15.30;88.70;;;;;;4982631;28;112712;-49
2024/04/01 01:01:49;;;;;;;110.88;18.05;;;15.40;88.60;;;;;;4986407;28;113089;-49
2024/04/01 01:04:15;;;;;;;99.32;17.38;;;15.40;88.50;;;;;;4985754;28;113207;-50
2024/04/01 01:06:42;;;;;;;107.22;18.33;;;15.40;88.60;;;;;;4985443;28;112875;-50
2024/04/01 01:09:11;;;;;;;122.78;19.65;;;15.40;88.60;;;;;;4986571;28;113005;-49
2024/04/01 01:11:38;;;;;;;123.35;17.88;;;15.40;88.50;;;;;;4986483;28;112876;-50
2024/04/01 01:14:04;;;;;;;117.10;19.65;;;15.40;88.60;;;;;;4985614;28;113457;-50
2024/04/01 01:16:30;;;;;;;115.88;17.48;;;15.30;88.60;;;;;;4985134;28;112662;-49
2024/04/01 01:18:56;;;;;;;122.45;18.42;;;15.40;88.60;;;;;;4986412;28;112849;-49
2024/04/01 01:21:21;;;;;;;119.95;18.83;;;15.40;88.50;;;;;;4986638;28;112676;-49
2024/04/01 01:23:47;;;;;;;120.45;20.08;;;15.30;88.60;;;;;;4985720;28;113159;-49
2024/04/01 01:26:13;;;;;;;120.90;19.83;;;15.40;88.50;;;;;;4985400;28;113190;-49
2024/04/01 01:28:39;;;;;;;129.52;19.80;;;15.30;88.60;;;;;;4972012;28;112869;-50
2024/04/01 01:31:05;;;;;;;127.82;23.95;;;15.30;88.50;;;;;;4969777;28;112793;-49
2024/04/01 01:33:31;;;;;;;128.30;23.23;;;15.30;88.80;;;;;;4984538;28;114019;-49
2024/04/01 01:35:58;;;;;;;136.65;21.85;;;15.30;88.80;;;;;;4989450;28;112757;-49
2024/04/01 01:38:23;;;;;;;123.32;19.23;;;15.30;88.80;;;;;;4992373;28;112771;-49
2024/04/01 01:40:49;;;;;;;127.15;19.40;;;15.30;88.90;;;;;;4989411;28;112930;-49
2024/04/01 01:43:15;;;;;;;123.45;18.60;;;15.30;88.80;;;;;;4988756;28;113441;-49
2024/04/01 01:45:40;;;;;;;118.72;19.80;;;15.40;88.60;;;;;;4988162;28;112648;-50
2024/04/01 01:48:06;;;;;;;119.68;19.17;;;15.30;88.70;;;;;;4989875;28;112916;-49
2024/04/01 01:50:32;;;;;;;133.07;20.90;;;15.30;88.60;;;;;;4988192;28;112883;-49
2024/04/01 01:52:58;;;;;;;127.43;20.83;;;15.30;88.70;;;;;;4988569;28;113330;-49
2024/04/01 01:55:23;;;;;;;116.47;20.45;;;15.30;88.70;;;;;;4988635;28;112595;-49
2024/04/01 01:57:49;;;;;;;123.82;19.75;;;15.30;88.70;;;;;;4989209;28;112893;-49
2024/04/01 02:00:15;;;;;;;139.10;21.00;;;15.30;88.70;;;;;;4989165;28;112691;-49
2024/04/01 02:02:41;;;;;;;143.02;20.00;;;15.30;88.80;;;;;;4988247;28;113310;-50
2024/04/01 02:05:07;;;;;;;145.30;20.77;;;15.30;88.70;;;;;;4988466;28;112674;-49
2024/04/01 02:07:33;;;;;;;135.02;20.90;;;15.30;88.70;;;;;;4989329;28;112664;-49
2024/04/01 02:09:59;;;;;;;148.85;20.40;;;15.30;88.70;;;;;;4989218;28;113456;-52
2024/04/01 02:12:25;;;;;;;129.18;19.83;;;15.30;88.80;;;;;;4988102;28;113345;-53
2024/04/01 02:14:51;;;;;;;127.03;20.85;;;15.30;88.80;;;;;;4987985;28;113929;-49
2024/04/01 02:17:17;;;;;;;125.60;19.70;;;15.30;88.80;;;;;;4987784;28;112897;-49
2024/04/01 02:19:45;;;;;;;127.18;22.00;;;15.40;88.90;;;;;;4989169;28;112649;-50
2024/04/01 02:22:14;;;;;;;122.10;20.67;;;15.40;88.70;;;;;;4987940;28;113845;-49
2024/04/01 02:24:41;;;;;;;116.05;19.45;;;15.40;88.60;;;;;;4987824;28;112747;-49
2024/04/01 02:27:07;;;;;;;125.90;19.67;;;15.40;88.70;;;;;;4984044;28;112762;-52
2024/04/01 02:29:33;;;;;;;123.80;19.88;;;15.30;88.70;;;;;;4969263;28;112762;-49
2024/04/01 02:31:58;;;;;;;130.07;22.23;;;15.30;88.80;;;;;;4970967;28;113479;-50
2024/04/01 02:34:24;;;;;;;130.65;20.70;;;15.30;88.80;;;;;;4988025;28;112837;-50
2024/04/01 02:36:50;;;;;;;115.10;19.30;;;15.40;88.70;;;;;;4988498;28;112798;-49
2024/04/01 02:39:18;;;;;;;118.47;19.67;;;15.40;88.50;;;;;;4988288;28;113120;-50
2024/04/01 02:41:45;;;;;;;115.47;20.55;;;15.40;88.60;;;;;;4988110;28;115104;-50
2024/04/01 02:44:11;;;;;;;111.05;20.35;;;15.40;88.60;;;;;;4985370;28;113843;-52
2024/04/01 02:46:37;;;;;;;124.15;21.35;;;15.40;88.60;;;;;;4989041;28;112934;-50
2024/04/01 02:49:04;;;;;;;130.98;20.05;;;15.40;88.60;;;;;;4988670;28;112928;-51
2024/04/01 02:51:30;;;;;;;138.10;22.08;;;15.40;88.60;;;;;;4987414;28;115128;-49
2024/04/01 02:53:55;;;;;;;141.63;21.80;;;15.30;88.70;;;;;;4987450;28;113048;-49
2024/04/01 02:56:21;;;;;;;135.32;21.35;;;15.40;88.70;;;;;;4988060;28;112717;-50
2024/04/01 02:58:49;;;;;;;134.88;21.75;;;15.30;88.80;;;;;;4988594;28;113172;-49
2024/04/01 03:01:15;;;;;;;124.57;19.98;;;15.30;88.90;;;;;;4987297;28;114582;-50
2024/04/01 03:03:41;;;;;;;131.38;21.08;;;15.40;88.80;;;;;;4987343;28;112978;-49
2024/04/01 03:06:07;;;;;;;128.73;20.73;;;15.40;88.80;;;;;;4986886;28;112748;-49
2024/04/01 03:08:33;;;;;;;137.27;20.48;;;15.40;88.50;;;;;;4988385;28;113355;-50
2024/04/01 03:11:02;;;;;;;122.80;20.45;;;15.40;88.50;;;;;;4987093;28;113297;-49
2024/04/01 03:13:29;;;;;;;131.23;20.73;;;15.40;88.60;;;;;;4987204;28;112613;-49
2024/04/01 03:15:55;;;;;;;143.23;22.15;;;15.40;88.60;;;;;;4986542;28;112938;-49
2024/04/01 03:18:22;;;;;;;119.68;20.73;;;15.40;88.60;;;;;;4988245;28;112787;-50
2024/04/01 03:20:48;;;;;;;130.75;21.63;;;15.40;88.60;;;;;;4987217;28;113289;-53
2024/04/01 03:23:15;;;;;;;130.25;21.00;;;15.40;88.70;;;;;;4987087;28;114182;-50
2024/04/01 03:25:41;;;;;;;121.90;21.75;;;15.30;88.80;;;;;;4987700;28;112641;-49
2024/04/01 03:28:07;;;;;;;130.93;22.58;;;15.30;88.90;;;;;;4975080;28;112672;-49
2024/04/01 03:30:34;;;;;;;132.55;22.13;;;15.30;89.00;;;;;;4986382;28;113171;-49
2024/04/01 03:33:00;;;;;;;139.98;22.98;;;15.30;89.00;;;;;;4987030;28;112806;-50
2024/04/01 03:35:26;;;;;;;139.32;23.85;;;15.40;89.00;;;;;;4987780;28;112964;-49
2024/04/01 03:37:52;;;;;;;133.95;23.45;;;15.30;89.10;;;;;;4988071;28;112819;-50
2024/04/01 03:40:19;;;;;;;132.45;21.83;;;15.30;89.10;;;;;;4986765;28;113289;-49
2024/04/01 03:42:45;;;;;;;138.57;22.00;;;15.30;89.00;;;;;;4987198;28;113768;-50
2024/04/01 03:45:10;;;;;;;140.60;24.55;;;15.30;89.00;;;;;;4985660;28;113185;-52
2024/04/01 03:47:37;;;;;;;144.38;24.13;;;15.40;88.90;;;;;;4987714;28;112961;-49
2024/04/01 03:50:05;;;;;;;144.75;23.88;;;15.40;88.80;;;;;;4985989;28;113194;-49
2024/04/01 03:52:31;;;;;;;132.38;22.77;;;15.40;88.80;;;;;;4986342;28;113923;-51
2024/04/01 03:54:58;;;;;;;143.65;24.75;;;15.40;88.80;;;;;;4987548;28;112622;-50
2024/04/01 03:57:23;;;;;;;140.38;24.40;;;15.40;88.70;;;;;;4987282;28;112927;-49
2024/04/01 03:59:49;;;;;;;149.30;24.45;;;15.40;88.80;;;;;;4986673;28;113351;-49
2024/04/01 04:02:15;;;;;;;166.43;25.27;;;15.40;88.80;;;;;;4986439;28;112704;-51
2024/04/01 04:04:41;;;;;;;148.88;23.38;;;15.40;88.80;;;;;;4987548;28;112578;-49
2024/04/01 04:07:07;;;;;;;131.10;21.55;;;15.40;88.70;;;;;;4987498;28;113530;-49
2024/04/01 04:09:33;;;;;;;141.07;22.80;;;15.40;88.60;;;;;;4986310;28;113244;-51
2024/04/01 04:11:58;;;;;;;148.48;24.42;;;15.40;88.60;;;;;;4986568;28;112720;-49
2024/04/01 04:14:24;;;;;;;138.30;22.30;;;15.40;88.60;;;;;;4987051;28;112721;-52
2024/04/01 04:16:50;;;;;;;136.35;23.92;;;15.40;88.50;;;;;;4987298;28;112692;-49
2024/04/01 04:19:18;;;;;;;148.05;24.80;;;15.50;88.40;;;;;;4986187;28;114052;-51
2024/04/01 04:21:44;;;;;;;142.23;23.48;;;15.60;88.30;;;;;;4986101;28;113792;-49
2024/04/01 04:24:15;;;;;;;135.20;23.67;;;15.60;88.20;;;;;;4987166;28;112653;-50
2024/04/01 04:26:41;;;;;;;125.65;22.73;;;15.50;88.10;;;;;;4985485;28;112771;-49
2024/04/01 04:29:07;;;;;;;117.18;21.70;;;15.60;88.10;;;;;;4966415;28;113330;-50
2024/04/01 04:31:32;;;;;;;138.45;23.30;;;15.60;88.00;;;;;;4979882;28;112826;-54
2024/04/01 04:33:59;;;;;;;147.98;22.63;;;15.60;87.90;;;;;;4986927;28;112718;-51
2024/04/01 04:36:25;;;;;;;145.35;25.85;;;15.60;87.80;;;;;;4986782;28;113067;-49
2024/04/01 04:38:51;;;;;;;144.93;22.60;;;15.60;87.80;;;;;;4985644;28;114381;-49
2024/04/01 04:41:17;;;;;;;138.57;23.95;;;15.60;87.80;;;;;;4986000;28;113706;-49
2024/04/01 04:43:46;;;;;;;136.15;21.98;;;15.60;87.70;;;;;;4986998;28;112605;-49
2024/04/01 04:46:12;;;;;;;121.85;21.35;;;15.60;87.70;;;;;;4987241;28;112714;-52
2024/04/01 04:48:42;;;;;;;128.15;22.73;;;15.70;87.60;;;;;;4985875;28;113357;-50
2024/04/01 04:51:09;;;;;;;136.02;21.98;;;15.70;87.50;;;;;;4985619;28;113830;-50
2024/04/01 04:53:35;;;;;;;134.80;22.38;;;15.60;87.50;;;;;;4986702;28;112778;-50
2024/04/01 04:56:01;;;;;;;132.77;23.00;;;15.60;87.60;;;;;;4967624;28;112726;-50
2024/04/01 04:58:27;;;;;;;129.27;20.80;;;15.60;87.50;;;;;;4966037;28;113265;-49
2024/04/01 05:00:52;;;;;;;134.80;23.15;;;15.60;87.50;;;;;;4972540;28;114908;-50
2024/04/01 05:03:18;;;;;;;122.95;21.48;;;15.60;87.50;;;;;;4970488;28;113066;-49
2024/04/01 05:05:44;;;;;;;116.75;20.23;;;15.60;87.50;;;;;;4969935;28;112929;-50
2024/04/01 05:08:10;;;;;;;144.20;23.67;;;15.60;87.50;;;;;;4969218;28;113637;-50
2024/04/01 05:10:36;;;;;;;152.52;24.35;;;15.60;87.50;;;;;;4969131;28;114176;-52
2024/04/01 05:13:01;;;;;;;123.30;21.40;;;15.60;87.60;;;;;;4970194;28;112713;-49
2024/04/01 05:15:28;;;;;;;120.32;20.35;;;15.60;87.60;;;;;;4970095;28;113299;-49
2024/04/01 05:17:54;;;;;;;129.60;22.48;;;15.50;87.50;;;;;;4968870;28;114477;-51
2024/04/01 05:20:19;;;;;;;134.90;22.42;;;15.50;87.70;;;;;;4968740;28;113749;-49
2024/04/01 05:22:45;;;;;;;128.95;21.33;;;15.50;87.70;;;;;;4970112;28;112459;-50
2024/04/01 05:25:11;;;;;;;139.48;22.40;;;15.50;87.60;;;;;;4970008;28;112785;-50
2024/04/01 05:27:36;;;;;;;126.47;22.05;;;15.40;87.60;;;;;;4977852;28;114689;-49
2024/04/01 05:30:09;;;;;;;136.93;24.30;;;15.40;87.60;;;;;;4988947;28;112927;-50
2024/04/01 05:32:37;;;;;;;141.10;22.50;;;15.40;87.60;;;;;;4989793;28;112873;-50
2024/04/01 05:35:07;;;;;;;124.32;20.30;;;15.50;87.50;;;;;;4989630;28;112797;-50
2024/04/01 05:37:33;;;;;;;121.93;21.92;;;15.50;87.50;;;;;;4988660;28;114315;-50
2024/04/01 05:39:59;;;;;;;123.45;23.77;;;15.50;87.50;;;;;;4988855;28;112699;-49
2024/04/01 05:42:24;;;;;;;133.80;23.10;;;15.50;87.40;;;;;;4990268;28;112754;-53
2024/04/01 05:44:50;;;;;;;120.13;22.08;;;15.50;87.50;;;;;;4989023;28;112738;-49
2024/04/01 05:47:16;;;;;;;145.13;24.67;;;15.50;87.60;;;;;;4988209;28;113186;-51
2024/04/01 05:49:42;;;;;;;133.90;22.77;;;15.50;87.60;;;;;;4988445;28;113771;-50
2024/04/01 05:52:08;;;;;;;131.10;23.95;;;15.50;87.40;;;;;;4989323;28;112792;-50
2024/04/01 05:54:34;;;;;;;138.68;22.23;;;15.60;87.40;;;;;;4989453;28;113079;-49
2024/04/01 05:57:00;;;;;;;127.88;24.25;;;15.70;87.10;;;;;;4988358;28;114500;-50
2024/04/01 05:59:27;;;;;;;126.03;23.25;;;15.70;86.90;;;;;;4988277;28;112619;-52
2024/04/01 06:01:53;;;;;;;127.45;22.23;;;15.80;86.90;;;;;;4989336;28;113000;-53
2024/04/01 06:04:23;;;;;;;122.10;22.55;;;15.70;86.90;;;;;;4989159;28;112777;-49
2024/04/01 06:06:49;;;;;;;119.95;22.45;;;15.80;87.00;;;;;;4988249;28;114398;-49
2024/04/01 06:09:15;;;;;;;126.47;22.00;;;15.70;86.80;;;;;;4988229;28;112652;-49
2024/04/01 06:11:41;;;;;;;125.57;22.10;;;15.70;86.70;;;;;;4989315;28;114111;-51
2024/04/01 06:14:08;;;;;;;131.02;21.25;;;15.70;86.70;;;;;;4988794;28;113058;-50
2024/04/01 06:16:37;;;;;;;140.35;23.20;;;15.70;86.70;;;;;;4988006;28;113198;-50
2024/04/01 06:19:04;;;;;;;126.50;21.95;;;15.70;86.70;;;;;;4988390;28;112643;-51
2024/04/01 06:21:30;;;;;;;128.93;23.10;;;15.70;86.80;;;;;;4989004;28;112682;-52
2024/04/01 06:23:56;;;;;;;128.27;22.30;;;15.70;86.90;;;;;;4989129;28;112851;-52
2024/04/01 06:26:21;;;;;;;138.40;22.88;;;15.70;86.90;;;;;;4975061;28;114579;-49
2024/04/01 06:28:48;;;;;;;123.38;21.75;;;15.70;86.80;;;;;;4986928;28;112765;-54
2024/04/01 06:31:15;;;;;;;132.27;22.40;;;15.70;86.80;;;;;;4988831;28;113406;-50
2024/04/01 06:33:41;;;;;;;129.82;22.45;;;15.70;86.70;;;;;;4988657;28;112744;-50
2024/04/01 06:36:07;;;;;;;133.68;23.83;;;15.80;86.50;;;;;;4987590;28;114532;-53
2024/04/01 06:38:33;;;;;;;138.00;24.02;;;15.80;86.50;;;;;;4987814;28;113317;-53
2024/04/01 06:40:59;;;;;;;146.05;23.75;;;15.80;86.40;;;;;;4987442;28;112798;-53
2024/04/01 06:43:25;;;;;;;145.05;23.15;;;15.80;86.30;;;;;;4989355;28;113056;-50
2024/04/01 06:45:52;;;;;;;127.07;22.65;;;15.80;86.30;;;;;;4987043;28;114614;-49
2024/04/01 06:48:18;;;;;;;130.63;23.05;;;15.80;86.30;;;;;;4987570;28;113912;-50
2024/04/01 06:50:44;;;;;;;144.32;23.98;;;15.80;86.30;;;;;;4988441;28;112788;-50
2024/04/01 06:53:10;;;;;;;127.40;23.83;;;15.80;86.30;;;;;;4988740;28;112757;-53
2024/04/01 06:55:36;;;;;;;135.25;22.15;;;15.70;86.40;;;;;;4987356;28;113544;-49
2024/04/01 06:58:02;;;;;;;143.57;22.48;;;15.70;86.60;;;;;;4987381;28;113162;-50
2024/04/01 07:00:27;;;;;;;132.00;23.88;;;15.70;86.40;;;;;;4988657;28;112712;-49
2024/04/01 07:02:53;;;;;;;144.65;24.67;;;15.80;86.40;;;;;;4988532;28;112796;-50
2024/04/01 07:05:19;;;;;;;137.30;25.65;;;15.70;86.40;;;;;;4987206;28;114524;-51
2024/04/01 07:07:45;;;;;;;153.88;25.40;;;15.80;86.60;;;;;;4987217;28;113964;-49
2024/04/01 07:10:11;;;;;;;142.23;25.30;;;15.80;86.30;;;;;;4988271;28;112802;-55
2024/04/01 07:12:37;;;;;;;130.70;23.83;;;15.90;86.20;;;;;;4988240;28;112915;-51
2024/04/01 07:15:03;;;;;;;141.25;23.58;;;15.90;85.80;;;;;;4987098;28;115390;-53
2024/04/01 07:17:29;;;;;;;151.50;26.58;;;15.90;85.80;;;;;;4987050;28;113588;-50
2024/04/01 07:19:55;;;;;;;144.90;25.35;;;15.90;85.90;;;;;;4988027;28;112502;-50
2024/04/01 07:22:20;;;;;;;143.18;26.55;;;15.80;86.10;;;;;;4986566;28;113128;-52
2024/04/01 07:24:46;;;;;;;139.43;25.45;;;15.70;86.70;;;;;;4985769;28;113207;-51
2024/04/01 07:27:12;;;;;;;155.60;29.77;;;15.70;86.80;;;;;;4973064;28;113040;-50
2024/04/01 07:29:38;;;;;;;155.35;25.65;;;15.70;86.80;;;;;;4988294;28;112505;-51
2024/04/01 07:32:04;;;;;;;139.60;26.13;;;15.60;86.80;;;;;;4988158;28;112957;-50
2024/04/01 07:34:29;;;;;;;148.20;25.38;;;15.60;86.90;;;;;;4976611;28;113429;-51
2024/04/01 07:36:55;;;;;;;147.82;25.23;;;15.70;86.80;;;;;;4966702;28;112956;-54
2024/04/01 07:39:21;;;;;;;143.07;25.25;;;15.60;86.90;;;;;;4975359;28;112631;-50
2024/04/01 07:41:46;;;;;;;141.07;26.20;;;15.60;86.80;;;;;;4975616;28;112841;-50
2024/04/01 07:44:12;;;;;;;147.88;24.45;;;15.60;87.10;;;;;;4969218;28;115074;-50
2024/04/01 07:46:38;;;;;;;149.90;25.50;;;15.60;87.00;;;;;;4971453;28;114511;-49
2024/04/01 07:49:04;;;;;;;140.70;24.35;;;15.60;87.30;;;;;;4974823;28;112841;-50
2024/04/01 07:51:30;;;;;;;142.13;25.88;;;15.60;87.30;;;;;;4974011;28;112799;-51
2024/04/01 07:53:56;;;;;;;157.77;25.52;;;15.60;87.40;;;;;;4978064;28;113200;-50
2024/04/01 07:56:23;;;;;;;144.07;26.00;;;15.60;87.50;;;;;;4975254;28;112888;-49
2024/04/01 07:58:49;;;;;;;141.93;25.40;;;15.70;87.20;;;;;;4976250;28;113525;-50
2024/04/01 08:01:15;;;;;;;150.90;33.65;;;15.70;87.20;;;;;;4979808;28;113008;-53
2024/04/01 08:03:41;;;;;;;141.35;26.83;;;15.70;87.10;;;;;;4980727;28;114555;-49
2024/04/01 08:06:06;;;;;;;148.77;26.25;;;15.80;87.20;;;;;;4977987;28;113709;-50
2024/04/01 08:08:32;;;;;;;140.95;25.15;;;15.70;87.30;;;;;;4982926;28;113132;-54
2024/04/01 08:10:58;;;;;;;146.00;25.38;;;15.70;87.40;;;;;;4980113;28;112724;-51
2024/04/01 08:13:23;;;;;;;144.82;27.90;;;15.70;87.60;;;;;;4981224;28;113267;-50
2024/04/01 08:16:03;;;;;;;154.73;29.33;;;15.70;87.60;;;;;;4983702;28;112787;-50
2024/04/01 08:18:30;;;;;;;154.88;29.15;;;15.80;87.60;;;;;;4983609;28;112762;-54
2024/04/01 08:20:57;;;;;;;138.18;36.15;;;15.70;87.50;;;;;;4986095;28;112628;-50
2024/04/01 08:23:23;;;;;;;143.27;33.05;;;15.70;87.70;;;;;;4966829;28;114620;-50
2024/04/01 08:25:49;;;;;;;158.23;27.63;;;15.70;87.70;;;;;;4967598;28;112641;-52
2024/04/01 08:28:15;;;;;;;138.15;26.88;;;15.70;87.90;;;;;;4967119;28;113330;-56
2024/04/01 08:30:40;;;;;;;141.25;28.00;;;15.70;88.00;;;;;;4967124;28;112829;-50
2024/04/01 08:33:06;;;;;;;142.48;26.52;;;15.70;87.90;;;;;;4970231;28;113191;-50
2024/04/01 08:35:32;;;;;;;136.32;25.52;;;15.70;88.10;;;;;;4967127;28;114514;-52
2024/04/01 08:37:58;;;;;;;137.68;26.02;;;15.70;88.20;;;;;;4969827;28;114099;-53
2024/04/01 08:40:24;;;;;;;129.52;24.40;;;15.80;88.20;;;;;;4975502;28;112861;-54
2024/04/01 08:42:57;;;;;;;160.00;27.88;;;15.80;87.90;;;;;;4967846;28;113347;-52
2024/04/01 08:45:23;;;;;;;134.18;26.77;;;15.80;88.00;;;;;;4965840;28;114451;-54
2024/04/01 08:47:55;;;;;;;124.53;25.45;;;15.80;88.10;;;;;;4966020;28;113165;-51
2024/04/01 08:50:34;;;;;;;135.63;25.08;;;15.80;88.20;;;;;;4966003;28;113171;-50
2024/04/01 08:53:11;;;;;;;120.07;24.73;;;15.90;88.20;;;;;;4965225;28;114854;-52
2024/04/01 08:55:37;;;;;;;132.93;26.73;;;15.90;88.20;;;;;;4969675;28;112863;-51
2024/04/01 08:58:04;;;;;;;129.93;25.90;;;15.90;88.10;;;;;;4966496;28;112618;-50
2024/04/01 09:00:30;;;;;;;120.15;25.73;;;15.80;88.10;;;;;;4966329;28;112796;-50
2024/04/01 09:02:56;;;;;;;125.35;27.52;;;15.80;88.20;;;;;;4965630;28;114047;-50
2024/04/01 09:05:22;;;;;;;133.38;27.58;;;15.80;88.30;;;;;;4965820;28;113164;-51
2024/04/01 09:07:49;;;;;;;134.35;34.55;;;15.70;88.10;;;;;;4966721;28;113027;-50
2024/04/01 09:10:21;;;;;;;129.70;29.70;;;15.70;88.50;;;;;;4966933;28;113171;-50
2024/04/01 09:12:47;;;;;;;126.28;25.40;;;15.70;88.60;;;;;;4965879;28;113657;-52
2024/04/01 09:15:13;;;;;;;130.05;27.38;;;15.70;88.30;;;;;;4965969;28;113083;-51
2024/04/01 09:17:38;;;;;;;122.28;24.85;;;15.80;88.40;;;;;;4966389;28;113011;-50
2024/04/01 09:20:06;;;;;;;124.38;25.83;;;15.80;88.40;;;;;;4966574;28;113034;-51
2024/04/01 09:22:32;;;;;;;122.90;25.88;;;15.80;88.40;;;;;;4965501;28;114475;-50
2024/04/01 09:24:58;;;;;;;115.00;24.67;;;15.90;88.50;;;;;;4965813;28;112933;-50
2024/04/01 09:27:25;;;;;;;108.88;23.52;;;15.90;88.40;;;;;;4974125;28;112519;-51
2024/04/01 09:29:51;;;;;;;124.90;26.23;;;15.90;88.20;;;;;;4986360;28;112792;-51
2024/04/01 09:32:18;;;;;;;112.82;26.25;;;15.90;88.30;;;;;;4985321;28;113288;-50
2024/04/01 09:34:44;;;;;;;103.90;25.23;;;16.00;88.30;;;;;;4985408;28;112625;-50
2024/04/01 09:37:10;;;;;;;110.78;28.90;;;15.90;88.10;;;;;;4985989;28;112845;-50
2024/04/01 09:39:40;;;;;;;117.65;29.25;;;16.00;88.00;;;;;;4986532;28;113175;-51
2024/04/01 09:42:09;;;;;;;105.75;25.88;;;15.90;87.90;;;;;;4985237;28;113243;-50
2024/04/01 09:44:35;;;;;;;101.97;23.58;;;16.00;88.00;;;;;;4984967;28;112900;-50
2024/04/01 09:47:02;;;;;;;99.78;23.42;;;16.00;87.60;;;;;;4985897;28;112856;-50
2024/04/01 09:49:30;;;;;;;100.30;23.27;;;15.90;87.50;;;;;;4989354;28;112947;-50
2024/04/01 09:51:56;;;;;;;104.82;24.55;;;15.90;87.50;;;;;;4988486;28;113158;-50
2024/04/01 09:54:22;;;;;;;108.60;23.67;;;15.90;87.80;;;;;;4988551;28;112965;-49
2024/04/01 09:57:24;;;;;;;97.57;23.00;;;15.90;87.80;;;;;;4989640;28;112658;-50
2024/04/01 09:59:56;;;;;;;96.32;24.52;;;16.00;87.70;;;;;;4978126;28;112559;-49
2024/04/01 10:02:54;;;;;;;111.57;26.85;;;16.00;87.80;;;;;;4988339;28;113365;-50
2024/04/01 10:05:41;;;;;;;95.68;25.65;;;16.10;87.90;;;;;;4988504;28;112927;-51
2024/04/01 10:08:35;;;;;;;94.50;23.92;;;16.00;87.70;;;;;;4976076;28;112592;-50
2024/04/01 10:11:15;;;;;;;101.03;24.65;;;16.10;87.70;;;;;;4989073;28;112681;-51
2024/04/01 10:14:09;;;;;;;100.63;26.10;;;16.10;87.30;;;;;;4988390;28;113190;-53
2024/04/01 10:17:17;;;;;;;99.47;25.63;;;16.10;87.40;;;;;;4974555;28;113936;-50
2024/04/01 10:20:10;;;;;;;84.13;24.63;;;16.10;87.70;;;;;;4981907;28;112783;-50
2024/04/01 10:23:11;;;;;;;97.05;25.38;;;16.10;87.50;;;;;;4989040;28;113028;-50
2024/04/01 10:26:01;;;;;;;90.32;22.13;;;16.20;87.30;;;;;;4956486;28;115019;-50
2024/04/01 10:28:36;;;;;;;90.15;22.98;;;16.00;87.10;;;;;;4984238;28;113676;-50
2024/04/01 10:31:08;;;;;;;88.55;22.83;;;16.10;87.10;;;;;;4988785;28;112766;-53
2024/04/01 10:34:00;;;;;;;97.60;23.20;;;16.10;87.00;;;;;;4988979;28;112678;-50
2024/04/01 10:36:35;;;;;;;101.90;22.73;;;16.20;87.00;;;;;;4987657;28;114470;-50
2024/04/01 10:39:38;;;;;;;94.32;21.63;;;16.20;86.90;;;;;;4987586;28;112806;-50
2024/04/01 10:42:10;;;;;;;;;;;16.30;86.60;;;;;;4989260;28;112634;-50
2024/04/01 10:45:09;;;;;;;89.97;23.05;;;16.30;86.40;;;;;;4990854;28;112706;-56
2024/04/01 10:48:09;;;;;;;92.78;23.30;;;16.30;86.30;;;;;;4987694;28;113174;-52
2024/04/01 10:51:17;;;;;;;83.40;23.25;;;16.30;86.70;;;;;;4987497;28;113769;-50
2024/04/01 10:53:57;;;;;;;80.28;20.65;;;16.30;86.90;;;;;;4988851;28;112697;-50
2024/04/01 10:56:29;;;;;;;90.75;20.30;;;16.30;86.50;;;;;;4976666;28;112619;-50
2024/04/01 10:59:20;;;;;;;79.03;16.43;;;16.30;86.30;;;;;;4987350;28;113389;-50
2024/04/01 11:02:11;;;;;;;69.28;16.52;;;16.20;85.90;;;;;;4979403;28;115379;-50
2024/04/01 11:04:52;;;;;;;67.88;15.57;;;16.20;86.00;;;;;;4988165;28;112514;-49
2024/04/01 11:08:09;;;;;;;71.97;15.82;;;16.20;85.70;;;;;;4988644;28;114949;-50
2024/04/01 11:10:44;;;;;;;71.60;16.42;;;16.10;85.40;;;;;;4938441;28;114462;-51
2024/04/01 11:13:22;;;;;;;72.20;20.95;;;16.00;85.30;;;;;;4985974;28;112757;-50
2024/04/01 11:15:54;;;;;;;76.65;18.35;;;15.90;85.70;;;;;;4988241;28;112572;-50
2024/04/01 11:18:37;;;;;;;69.63;17.85;;;16.00;85.80;;;;;;4988203;28;112677;-50
2024/04/01 11:21:25;;;;;;;70.47;16.50;;;16.00;85.90;;;;;;4987087;28;113198;-50
2024/04/01 11:24:10;;;;;;;74.43;16.33;;;16.00;86.20;;;;;;4987271;28;112723;-50
2024/04/01 11:27:05;;;;;;;72.07;14.68;;;16.00;86.10;;;;;;4973955;28;112844;-50
2024/04/01 11:29:34;;;;;;;68.43;13.73;;;15.90;85.70;;;;;;4988243;28;112721;-50
2024/04/01 11:32:03;;;;;;;74.78;15.95;;;15.90;85.50;;;;;;4986775;28;114587;-52
2024/04/01 11:34:41;;;;;;;68.13;14.95;;;15.70;85.00;;;;;;4986816;28;113849;-50
2024/04/01 11:37:13;;;;;;;71.65;15.82;;;15.80;85.90;;;;;;4987845;28;112897;-51
2024/04/01 11:39:42;;;;;;;70.05;16.70;;;15.90;85.90;;;;;;4987982;28;112691;-53
2024/04/01 11:42:11;;;;;;;70.43;15.27;;;16.00;85.80;;;;;;4986738;28;113236;-50
2024/04/01 11:44:37;;;;;;;65.88;14.93;;;15.90;85.50;;;;;;4986598;28;114263;-51
2024/04/01 11:47:04;;;;;;;66.93;17.63;;;15.90;85.40;;;;;;4987568;28;112938;-50
2024/04/01 11:49:40;;;;;;;71.65;27.02;;;15.90;85.50;;;;;;4987704;28;112857;-50
2024/04/01 11:52:17;;;;;;;65.63;20.58;;;15.90;85.50;;;;;;4986308;28;114547;-50
2024/04/01 11:54:44;;;;;;;93.55;24.13;;;15.80;85.40;;;;;;4986850;28;113024;-50
2024/04/01 11:57:24;;;;;;;70.40;18.25;;;15.70;84.80;;;;;;4987292;28;112590;-50
2024/04/01 11:59:50;;;;;;;57.00;18.08;;;15.70;85.40;;;;;;4987669;28;112644;-50
2024/04/01 12:02:18;;;;;;;62.78;16.33;;;15.70;85.70;;;;;;4985958;28;114582;-50
2024/04/01 12:04:44;;;;;;;55.45;14.63;;;15.70;85.50;;;;;;4986414;28;113901;-50
2024/04/01 12:07:15;;;;;;;55.70;12.50;;;15.60;85.20;;;;;;4986298;28;112743;-51
2024/04/01 12:09:41;;;;;;;48.55;11.73;;;15.60;85.50;;;;;;4987369;28;112776;-50
2024/04/01 12:12:10;;;;;;;51.33;12.63;;;15.70;85.50;;;;;;4985704;28;114680;-50
2024/04/01 12:14:39;;;;;;;51.65;12.35;;;15.60;84.90;;;;;;4986188;28;112831;-50
2024/04/01 12:17:08;;;;;;;46.17;11.55;;;15.60;84.70;;;;;;4987282;28;112831;-50
2024/04/01 12:19:36;;;;;;;44.45;10.43;;;15.60;85.20;;;;;;4987124;28;112728;-52